x

9441102 - Westport, Wa (wptw1) Weather Station

6:36 - Mon 22nd May 2017 All times are PDT. -7 hours from GMT.

  • Wind
    26mph, 32mph gusts
  • Sea Temp 59°f
  • Ar Temp 59°f
  • Sea Pressure 1017.8mb
  • 9441102 - Westport, Wa
  • 9441102 - Westport, Wa

More Historic Weather Station data

Upgrade to MSW Pro to gain access to the past 30 days of data for over 8000 Wavebouys and Weather Stations around the globe.

Join Pro

Comparision Forecast

View Surf forecast
   
Seg 05/22 6:36 26 32 mph 1017.8mb 59f 59f
6:30 26 32 mph 1017.9mb 60f 59f
6:24 26 30 mph 1017.9mb 60f 59f
6:18 28 31 mph 1017.9mb 60f 59f
6:12 25 30 mph 1017.9mb 60f 60f
6:06 25 31 mph 1017.9mb 60f 59f
6:00 26 31 mph 1018mb 60f 59f
5:36 24 30 mph 1018.3mb 60f 60f
5:30 23 28 mph 1018.4mb 60f 61f
5:24 24 28 mph 1018.3mb 60f 60f
5:18 24 29 mph 1018.5mb 60f 60f
5:12 23 26 mph 1018.6mb 60f 60f
5:06 22 28 mph 1018.6mb 59f 60f
5:00 22 25 mph 1018.6mb 59f 60f
4:36 21 25 mph 1018.8mb 58f 60f
4:30 22 24 mph 1018.8mb 58f 60f
4:24 22 24 mph 1018.8mb 58f 61f
4:18 22 24 mph 1018.9mb 58f 62f
4:12 20 21 mph 1018.9mb 58f 62f
4:06 18 21 mph 1019mb 58f 62f
4:00 17 21 mph 1018.9mb 58f 62f
3:36 16 18 mph 1019.1mb 57f 61f
3:30 20 22 mph 1019.2mb 57f 60f
3:24 18 22 mph 1019.3mb 57f 60f
3:18 17 21 mph 1019.4mb 57f 60f
3:12 18 21 mph 1019.4mb 57f 61f
3:06 16 20 mph 1019.5mb 57f 61f
3:00 16 22 mph 1019.6mb 57f 62f
2:36 20 23 mph 1019.5mb 56f 62f
2:30 20 22 mph 1019.5mb 56f 63f
2:24 21 23 mph 1019.5mb 56f 63f
2:18 18 21 mph 1019.6mb 56f 63f
2:12 20 21 mph 1019.5mb 56f 63f
2:06 20 22 mph 1019.5mb 56f 63f
2:00 18 22 mph 1019.5mb 56f 63f
1:36 16 17 mph 1019.4mb 55f 65f
1:30 17 20 mph 1019.4mb 55f 65f
1:24 17 18 mph 1019.4mb 55f 67f
1:18 17 17 mph 1019.4mb 55f 67f
1:12 16 17 mph 1019.4mb 55f 67f
1:06 17 17 mph 1019.5mb 55f 66f
1:00 15 16 mph 1019.4mb 55f 66f
12:36 8 9 mph 1019.4mb 55f 74f
12:30 8 11 mph 1019.5mb 55f 75f
12:24 9 13 mph 1019.5mb 55f 74f
12:18 10 14 mph 1019.6mb 54f 73f
12:12 8 13 mph 1019.5mb 54f 73f
12:06 8 11 mph 1019.6mb 54f 73f
12:00 10 13 mph 1019.6mb 54f 72f
11:36 11 14 mph 1019.9mb 53f 69f
11:30 9 14 mph 1020.1mb 53f 68f
11:24 8 10 mph 1020.2mb 53f 69f
11:18 8 11 mph 1020.3mb 54f 68f
11:12 9 11 mph 1020.4mb 54f 68f
11:06 8 11 mph 1020.5mb 54f 68f
11:00 8 10 mph 1020.5mb 54f 68f
10:36 6 9 mph 1020.8mb 54f 68f
10:30 7 10 mph 1020.9mb 54f 67f
10:24 6 8 mph 1021mb 54f 67f
10:18 7 8 mph 1021mb 54f 66f
10:12 6 8 mph 1021.1mb 54f 64f
10:06 7 9 mph 1021.1mb 54f 64f
10:00 9 9 mph 1021.1mb 54f 64f
9:36 13 13 mph 1021.2mb 55f 60f
9:30 13 15 mph 1021.2mb 55f 60f
9:24 15 16 mph 1021.3mb 55f 58f
9:18 15 17 mph 1021.3mb 55f 58f
9:12 16 17 mph 1021.3mb 55f 58f
9:06 15 16 mph 1021.3mb 55f 58f
9:00 13 16 mph 1021.3mb 55f 58f
8:36 5 8 mph 1021.2mb 56f 60f
8:30 6 7 mph 1021.1mb 56f 61f
8:24 6 6 mph 1021.1mb 56f 62f
8:18 5 6 mph 1021mb 56f 60f
8:12 5 5 mph 1020.9mb 57f 58f
8:06 5 7 mph 1021mb 57f 59f
8:00 6 6 mph 1020.9mb 57f 59f
7:36 9 10 mph 1021.1mb 57f 58f
7:30 10 11 mph 1021.1mb 57f 58f
7:24 7 13 mph 1020.9mb 57f 56f
7:18 9 13 mph 1020.8mb 57f 56f
7:12 10 14 mph 1020.8mb 57f 56f
7:06 11 15 mph 1020.8mb 57f 56f
7:00 14 16 mph 1020.8mb 57f 56f
5:36 9 10 mph 1020.7mb 58f 55f
5:30 6 8 mph 1020.7mb 58f 55f
5:24 7 9 mph 1020.8mb 57f 55f
5:18 8 9 mph 1020.7mb 57f 55f
5:12 7 8 mph 1020.8mb 57f 55f
5:06 7 8 mph 1020.9mb 57f 55f
5:00 8 9 mph 1020.9mb 57f 55f
4:36 9 10 mph 1020.9mb 57f 55f
4:30 8 9 mph 1020.9mb 57f 55f
4:24 7 9 mph 1021mb 57f 55f
4:18 7 8 mph 1021mb 57f 55f
4:12 6 7 mph 1021.1mb 57f 55f
4:06 6 7 mph 1021.1mb 57f 55f
4:00 6 7 mph 1021.1mb 57f 55f
3:36 5 6 mph 1021.3mb 57f 55f
3:30 5 6 mph 1021.3mb 57f 55f
3:24 7 7 mph 1021.4mb 57f 55f
3:18 6 7 mph 1021.4mb 57f 55f
3:12 6 7 mph 1021.5mb 57f 55f
3:06 6 6 mph 1021.5mb 57f 55f
3:00 6 7 mph 1021.5mb 57f 55f
2:36 6 6 mph 1021.5mb 57f 55f
2:30 5 6 mph 1021.4mb 57f 55f
2:24 6 6 mph 1021.4mb 56f 55f
2:18 5 6 mph 1021.5mb 56f 55f
2:12 5 5 mph 1021.4mb 56f 55f
2:06 5 5 mph 1021.4mb 56f 55f
2:00 3 5 mph 1021.4mb 56f 55f
1:36 6 7 mph 1021.5mb 56f 55f
1:30 7 7 mph 1021.5mb 56f 55f
1:24 7 8 mph 1021.5mb 57f 55f
1:18 6 8 mph 1021.5mb 56f 55f
1:12 6 7 mph 1021.5mb 56f 55f
1:06 6 7 mph 1021.5mb 55f 55f
1:00 6 8 mph 1021.5mb 55f 55f
12:36 8 10 mph 1021.7mb 55f 55f
12:30 10 13 mph 1021.7mb 55f 55f
12:24 11 15 mph 1021.7mb 55f 55f
12:18 13 15 mph 1021.7mb 55f 55f
12:12 14 15 mph 1021.6mb 55f 55f
12:06 13 14 mph 1021.6mb 55f 55f
12:00 13 14 mph 1021.6mb 55f 55f
Dom 05/21 11:36 17 18 mph 1021.6mb 55f 55f
11:30 18 21 mph 1021.6mb 55f 55f
11:24 20 22 mph 1021.6mb 55f 55f
11:18 20 22 mph 1021.6mb 55f 55f
11:12 18 21 mph 1021.7mb 54f 55f
11:06 18 20 mph 1021.7mb 54f 55f
11:00 18 20 mph 1021.6mb 54f 55f
10:36 14 15 mph 1021.6mb 54f 55f
10:30 14 15 mph 1021.6mb 54f 55f
10:24 14 14 mph 1021.6mb 54f 55f
10:18 13 14 mph 1021.7mb 54f 55f
10:12 10 13 mph 1021.7mb 54f 55f
10:06 8 9 mph 1021.7mb 54f 55f
10:00 8 10 mph 1021.6mb 54f 55f
9:36 10 14 mph 1021.5mb 54f 55f
9:30 10 14 mph 1021.5mb 54f 55f
9:24 10 15 mph 1021.5mb 54f 55f
9:18 11 16 mph 1021.5mb 55f 55f
9:12 11 16 mph 1021.4mb 55f 55f
9:06 13 16 mph 1021.4mb 55f 55f
9:00 13 15 mph 1021.4mb 55f 55f
8:36 11 14 mph 1021.3mb 55f 55f
8:30 11 15 mph 1021.3mb 55f 55f
8:24 15 16 mph 1021.3mb 55f 55f
8:18 16 20 mph 1021.3mb 55f 55f
8:12 16 21 mph 1021.2mb 56f 55f
8:06 16 17 mph 1021.2mb 56f 56f
8:00 14 15 mph 1021.2mb 56f 56f
7:54 10 11 mph 1021.2mb 56f 56f
7:48 13 15 mph 1021.2mb 56f 56f
7:36 16 20 mph 1021.2mb 56f 55f
7:30 15 20 mph 1021.3mb 56f 55f
7:24 15 18 mph 1021.3mb 56f 56f
7:18 15 17 mph 1021.3mb 56f 56f
7:12 15 20 mph 1021.4mb 56f 55f
7:06 16 18 mph 1021.5mb 56f 55f
7:00 16 20 mph 1021.5mb 57f 54f
6:54 16 18 mph 1021.5mb 58f 54f
6:48 16 20 mph 1021.4mb 58f 54f
6:36 15 17 mph 1021.4mb 58f 54f
6:30 17 20 mph 1021.4mb 58f 54f
6:24 18 21 mph 1021.4mb 58f 54f
6:18 16 17 mph 1021.5mb 58f 54f
6:12 14 17 mph 1021.6mb 58f 55f
6:06 14 17 mph 1021.7mb 58f 54f
6:00 16 22 mph 1021.8mb 59f 54f
5:54 20 22 mph 1021.9mb 59f 54f
5:48 20 23 mph 1022mb 59f 54f
5:36 22 23 mph 1022.2mb 59f 54f
5:30 20 23 mph 1022.3mb 59f 54f
5:24 18 22 mph 1022.3mb 59f 54f
5:18 20 24 mph 1022.4mb 59f 54f
5:12 21 25 mph 1022.6mb 59f 54f
5:06 20 22 mph 1022.6mb 59f 54f
5:00 17 22 mph 1022.6mb 60f 55f
4:54 18 25 mph 1022.6mb 60f 55f
4:48 21 24 mph 1022.6mb 60f 54f
4:36 21 23 mph 1022.5mb 60f 54f
4:30 18 23 mph 1022.6mb 60f 54f
4:24 18 22 mph 1022.6mb 60f 55f
4:18 20 22 mph 1022.6mb 60f 55f
4:12 21 23 mph 1022.7mb 60f 55f
4:06 20 22 mph 1022.7mb 60f 55f
4:00 20 23 mph 1022.7mb 60f 55f
3:54 21 24 mph 1022.8mb 60f 55f
3:48 22 24 mph 1022.8mb 59f 55f
3:36 21 24 mph 1022.8mb 58f 55f
3:30 22 24 mph 1022.9mb 58f 55f
3:24 21 22 mph 1022.9mb 58f 55f
3:18 18 22 mph 1022.9mb 58f 55f
3:12 18 22 mph 1023.1mb 58f 55f
3:06 18 21 mph 1023.2mb 58f 55f
3:00 17 22 mph 1023.3mb 58f 55f
2:54 20 22 mph 1023.3mb 58f 55f
2:48 18 23 mph 1023.3mb 57f 55f
2:36 21 23 mph 1023.3mb 57f 55f
2:30 21 23 mph 1023.3mb 57f 56f
2:24 22 23 mph 1023.3mb 57f 56f
2:18 22 23 mph 1023.4mb 57f 56f
2:12 18 21 mph 1023.4mb 57f 56f
2:06 17 20 mph 1023.5mb 57f 57f
2:00 14 18 mph 1023.5mb 57f 56f
1:54 16 21 mph 1023.6mb 57f 56f
1:48 17 21 mph 1023.7mb 57f 56f
1:36 21 22 mph 1023.7mb 57f 55f
1:30 20 22 mph 1023.8mb 57f 55f
1:24 20 22 mph 1023.8mb 57f 55f
1:18 20 21 mph 1023.9mb 57f 55f
1:12 17 18 mph 1023.9mb 56f 56f
1:06 14 16 mph 1023.8mb 56f 56f
1:00 14 15 mph 1023.8mb 56f 56f
12:54 14 15 mph 1023.9mb 56f 56f
12:48 13 14 mph 1023.9mb 57f 56f
12:36 13 14 mph 1023.9mb 56f 57f
12:30 11 13 mph 1024mb 56f 57f
12:24 13 13 mph 1024mb 56f 57f
12:18 10 11 mph 1024mb 56f 57f
12:12 10 13 mph 1024mb 56f 57f
12:06 13 14 mph 1023.9mb 56f 56f
12:00 13 14 mph 1023.9mb 56f 56f
11:54 13 14 mph 1024mb 56f 56f
11:48 13 15 mph 1024mb 56f 56f
11:36 14 15 mph 1024mb 56f 56f
11:30 14 15 mph 1024.1mb 56f 56f
11:24 14 15 mph 1024.1mb 56f 55f
11:18 14 15 mph 1024.2mb 56f 55f
11:12 14 15 mph 1024.2mb 56f 55f
11:06 13 14 mph 1024.2mb 56f 56f
11:00 13 13 mph 1024.2mb 56f 56f
10:54 11 13 mph 1024.2mb 56f 56f
10:48 11 13 mph 1024.2mb 55f 56f
10:36 10 11 mph 1024.2mb 55f 56f
10:30 11 13 mph 1024.3mb 55f 56f
10:24 9 10 mph 1024.3mb 55f 56f
10:18 9 10 mph 1024.4mb 55f 56f
10:12 9 10 mph 1024.4mb 55f 56f
10:06 7 9 mph 1024.4mb 55f 56f
10:00 8 9 mph 1024.4mb 55f 56f
9:54 5 6 mph 1024.4mb 55f 56f
9:36 2 6 mph 1024.3mb 55f 54f
9:30 5 6 mph 1024.3mb 55f 53f
9:24 5 7 mph 1024.3mb 55f 52f
9:18 6 8 mph 1024.4mb 55f 51f
9:12 6 8 mph 1024.4mb 56f 51f
9:06 6 8 mph 1024.4mb 56f 51f
9:00 7 8 mph 1024.4mb 56f 51f
8:54 6 7 mph 1024.3mb 56f 50f
8:48 6 8 mph 1024.4mb 56f 50f
8:36 6 8 mph 1024.3mb 56f 50f
8:30 6 8 mph 1024.3mb 56f 50f
8:24 7 8 mph 1024.3mb 56f 50f
8:18 6 8 mph 1024.2mb 56f 50f
8:12 6 8 mph 1024.1mb 56f 50f
8:06 6 8 mph 1024.1mb 56f 50f
8:00 7 8 mph 1024.1mb 56f 50f
7:54 6 8 mph 1024.2mb 56f 50f
7:48 6 7 mph 1024.2mb 56f 50f
7:36 6 8 mph 1024.1mb 56f 51f
7:30 6 8 mph 1024.1mb 56f 50f
7:24 6 8 mph 1024.1mb 56f 50f
7:18 7 8 mph 1024.1mb 56f 50f
7:12 6 8 mph 1024mb 56f 50f
7:06 6 9 mph 1024mb 57f 50f
7:00 6 7 mph 1024mb 57f 49f
6:54 6 8 mph 1024.1mb 57f 49f
6:36 6 9 mph 1024.1mb 57f 50f
6:30 5 9 mph 1024.1mb 57f 50f
6:24 6 9 mph 1024mb 57f 50f
6:18 7 8 mph 1024mb 57f 50f
6:12 7 9 mph 1024mb 57f 50f
6:06 8 9 mph 1024mb 57f 50f
6:00 6 7 mph 1023.9mb 58f 50f
5:54 7 9 mph 1023.9mb 58f 50f
5:48 7 9 mph 1023.9mb 58f 50f
5:36 7 9 mph 1023.9mb 58f 50f
5:30 6 8 mph 1023.8mb 57f 50f
5:24 6 8 mph 1023.8mb 57f 50f
5:18 6 7 mph 1023.8mb 57f 50f
5:12 6 8 mph 1023.8mb 57f 50f
5:06 6 8 mph 1023.7mb 58f 50f
5:00 6 8 mph 1023.7mb 58f 50f
4:54 7 8 mph 1023.7mb 58f 50f
4:48 6 8 mph 1023.7mb 58f 51f
4:36 5 8 mph 1023.6mb 57f 51f
4:30 6 9 mph 1023.7mb 57f 51f
4:24 3 8 mph 1023.7mb 57f 51f
4:18 6 8 mph 1023.7mb 57f 51f
4:12 6 8 mph 1023.7mb 57f 51f
4:06 7 9 mph 1023.7mb 57f 51f
4:00 7 8 mph 1023.7mb 57f 51f
3:54 8 10 mph 1023.7mb 57f 51f
3:48 9 10 mph 1023.7mb 57f 51f
3:36 9 10 mph 1023.8mb 57f 51f
3:30 7 10 mph 1023.9mb 57f 52f
3:24 8 11 mph 1024.1mb 57f 52f
3:18 9 13 mph 1024.1mb 57f 52f
3:12 11 14 mph 1024.2mb 57f 52f
3:06 11 14 mph 1024.1mb 57f 52f
3:00 11 14 mph 1024.1mb 57f 52f
2:54 10 11 mph 1024.1mb 57f 52f
2:48 11 15 mph 1024.1mb 57f 52f
2:36 10 15 mph 1024.1mb 57f 52f
2:30 10 13 mph 1024.1mb 57f 52f
2:24 11 15 mph 1024.1mb 57f 52f
2:18 10 13 mph 1024mb 57f 51f
2:12 9 13 mph 1024mb 57f 52f
2:06 11 15 mph 1024.1mb 57f 52f
2:00 10 13 mph 1024.1mb 57f 51f
1:54 10 14 mph 1024.1mb 57f 51f
1:48 10 13 mph 1024mb 57f 52f
1:36 9 11 mph 1023.9mb 57f 52f
1:30 10 13 mph 1023.8mb 57f 51f
1:24 9 13 mph 1023.8mb 57f 51f
1:18 11 14 mph 1023.8mb 57f 51f
1:12 10 14 mph 1023.8mb 57f 51f
1:06 11 14 mph 1023.8mb 57f 51f
1:00 11 14 mph 1023.9mb 56f 51f
12:54 10 13 mph 1023.9mb 56f 51f
12:36 13 15 mph 1023.7mb 57f 52f
12:30 13 14 mph 1023.6mb 57f 52f
12:24 10 14 mph 1023.7mb 56f 52f
12:18 13 14 mph 1023.6mb 56f 52f
12:12 11 15 mph 1023.6mb 56f 52f
12:06 14 17 mph 1023.7mb 56f 52f
12:00 14 16 mph 1023.6mb 56f 52f
Sáb 05/20 11:54 11 16 mph 1023.7mb 56f 52f
11:48 15 17 mph 1023.8mb 56f 52f
11:36 17 20 mph 1023.8mb 56f 52f
11:30 14 17 mph 1023.9mb 56f 52f
11:24 14 17 mph 1023.9mb 56f 52f
11:18 15 20 mph 1024mb 56f 52f
11:12 17 20 mph 1023.9mb 56f 52f
11:06 18 22 mph 1023.8mb 56f 52f
11:00 18 23 mph 1023.8mb 56f 52f
10:54 17 21 mph 1023.8mb 56f 52f
10:48 14 21 mph 1023.9mb 56f 52f
10:36 16 21 mph 1023.8mb 56f 52f
10:30 17 21 mph 1023.8mb 56f 52f
10:24 18 22 mph 1023.8mb 56f 52f
10:18 16 20 mph 1023.6mb 56f 52f
10:12 15 17 mph 1023.6mb 55f 52f
10:06 13 18 mph 1023.6mb 55f 52f
10:00 15 20 mph 1023.6mb 55f 52f
9:54 14 20 mph 1023.5mb 55f 52f
9:48 16 20 mph 1023.5mb 55f 52f
9:36 18 21 mph 1023.4mb 55f 52f
9:30 17 21 mph 1023.3mb 55f 52f
9:24 16 21 mph 1023.4mb 55f 52f
9:18 18 21 mph 1023.3mb 55f 52f
9:12 17 20 mph 1023.4mb 55f 52f
9:06 18 22 mph 1023.4mb 55f 52f
9:00 17 21 mph 1023.3mb 56f 52f
8:54 17 21 mph - - 52f
8:48 16 21 mph 1023.2mb 56f 52f
8:36 16 22 mph 1023.1mb 56f 53f
8:30 16 20 mph 1023.1mb 56f 52f
8:24 20 23 mph 1023.1mb 56f 52f
8:18 18 22 mph 1023.1mb 56f 52f
8:12 20 22 mph 1023mb 56f 52f
8:06 17 22 mph 1022.9mb 56f 52f
8:00 18 22 mph 1022.9mb 57f 52f
7:54 21 24 mph 1022.9mb 57f 52f
7:48 20 25 mph 1022.9mb 57f 52f
7:36 22 24 mph 1023mb 57f 52f
7:30 23 25 mph 1023mb 56f 52f
7:24 22 25 mph 1022.9mb 57f 52f
7:18 22 25 mph 1023mb 57f 52f
7:12 23 28 mph 1023mb 57f 52f
7:06 23 26 mph 1022.9mb 57f 52f
7:00 21 24 mph 1023mb 56f 52f
6:54 22 25 mph 1023mb 57f 52f
6:48 21 24 mph 1023mb 56f 52f
6:36 21 25 mph 1023mb 56f 52f
6:30 22 25 mph 1023mb 56f 52f
6:24 21 25 mph 1023mb 57f 53f
6:18 20 24 mph 1023.1mb 57f 52f
6:12 23 25 mph 1023mb 57f 52f
6:06 21 23 mph 1023.1mb 57f 52f
6:00 21 25 mph 1023.1mb 57f 52f
5:54 22 28 mph 1023.1mb 57f 52f
5:48 23 25 mph 1023.1mb 57f 53f
5:36 18 24 mph 1023.1mb 58f 53f
5:30 20 24 mph 1023.2mb 58f 53f
5:24 22 25 mph 1023.2mb 58f 53f
5:18 22 24 mph 1023.2mb 58f 53f
5:12 20 23 mph 1023.3mb 58f 53f
5:06 18 23 mph 1023.4mb 58f 53f
5:00 20 22 mph 1023.4mb 58f 53f
4:54 18 21 mph 1023.5mb 57f 54f
4:48 18 20 mph 1023.5mb 57f 54f
4:36 20 22 mph 1023.5mb 57f 54f
4:30 20 22 mph 1023.6mb 57f 54f
4:24 17 20 mph 1023.6mb 57f 54f
4:18 17 21 mph 1023.6mb 57f 54f
4:12 17 22 mph 1023.6mb 57f 55f
4:06 17 21 mph 1023.7mb 57f 55f
4:00 17 21 mph 1023.7mb 57f 55f
3:54 18 22 mph 1023.7mb 57f 55f
3:48 20 22 mph 1023.7mb 57f 55f
3:36 20 23 mph 1023.7mb 57f 55f
3:30 21 24 mph 1023.7mb 57f 55f
3:24 21 23 mph 1023.6mb 57f 55f
3:18 20 24 mph 1023.8mb 57f 55f
3:12 20 22 mph 1023.9mb 57f 55f
3:06 21 23 mph 1023.8mb 57f 55f
3:00 20 22 mph 1023.9mb 57f 55f
2:54 20 21 mph 1024mb 57f 55f
2:48 17 21 mph 1023.9mb 57f 55f
2:36 17 20 mph 1024mb 57f 56f
2:30 17 22 mph 1023.9mb 57f 55f
2:24 18 21 mph 1023.9mb 57f 55f
2:18 17 20 mph 1023.9mb 57f 56f
2:12 18 20 mph 1023.9mb 57f 56f
2:06 16 18 mph 1023.8mb 57f 56f
2:00 17 18 mph 1023.8mb 57f 56f
1:54 17 18 mph 1023.8mb 57f 56f
1:48 15 17 mph 1023.7mb 57f 56f
1:36 14 16 mph 1023.7mb 57f 56f
1:30 15 16 mph 1023.7mb 57f 55f
1:24 15 15 mph 1023.6mb 57f 55f
1:18 14 14 mph 1023.6mb 57f 55f
1:12 13 14 mph 1023.7mb 57f 55f
1:06 13 14 mph 1023.6mb 57f 55f
1:00 14 15 mph 1023.6mb 57f 55f
12:54 14 16 mph 1023.5mb 57f 55f
12:48 14 15 mph 1023.6mb 57f 56f
12:36  -  mph 1023.5mb 57f -
12:30  -  mph 1023.5mb 57f -
12:24  -  mph 1023.4mb 57f -
12:18  -  mph 1023.5mb 57f -
12:12  -  mph 1023.4mb 57f -
12:06  -  mph 1023.4mb 57f -
12:00  -  mph 1023.4mb 57f -
11:54  -  mph 1023.4mb 57f -
11:48  -  mph 1023.4mb 57f -
11:36  -  mph 1023.3mb 57f -
11:30  -  mph 1023.4mb 57f -
11:24  -  mph 1023.4mb 57f -
11:18  -  mph 1023.5mb 56f -
11:12  -  mph 1023.5mb 56f -
11:06  -  mph 1023.4mb 56f -
11:00  -  mph 1023.4mb 56f -
10:54  -  mph 1023.4mb 56f -
10:48  -  mph 1023.3mb 56f -
10:36 11 14 mph 1023.2mb 56f 55f
10:30 11 13 mph 1023.2mb 56f 55f
10:24 11 11 mph 1023.2mb 56f 55f
10:18 10 11 mph 1023.2mb 56f 55f
10:12 10 11 mph 1023.2mb 56f 55f
10:06 9 11 mph 1023.2mb 56f 55f
10:00 7 9 mph 1023.1mb 56f 55f
9:54 6 8 mph 1023mb 56f 55f
9:48 6 7 mph 1023mb 56f 55f
9:36 7 10 mph 1022.9mb 56f 54f
9:30 9 10 mph 1022.9mb 56f 54f
9:24 7 8 mph 1022.8mb 56f 55f
9:18 7 8 mph 1022.8mb 56f 54f
9:12 6 8 mph 1022.8mb 56f 54f
9:06 7 9 mph 1022.9mb 56f 54f
9:00 9 13 mph 1022.9mb 56f 54f
8:54 11 13 mph 1022.9mb 56f 54f
8:48 10 11 mph 1022.8mb 56f 54f
8:36 11 13 mph 1022.7mb 56f 54f
8:30 10 11 mph 1022.8mb 56f 54f
8:24 10 13 mph 1022.7mb 56f 54f
8:18 9 10 mph 1022.7mb 56f 54f
8:12 9 10 mph 1022.6mb 56f 53f
8:06 10 11 mph 1022.6mb 56f 53f
8:00 9 10 mph 1022.6mb 56f 53f
7:54 7 9 mph 1022.6mb 56f 53f
7:48 9 13 mph 1022.5mb 56f 53f
7:36 10 10 mph 1022.5mb 56f 52f
7:30 9 10 mph 1022.5mb 56f 53f
7:24 9 10 mph 1022.4mb 56f 53f
7:18 9 14 mph 1022.4mb 56f 53f
7:12 10 11 mph 1022.4mb 56f 53f
7:06 6 7 mph 1022.3mb 56f 53f
7:00 6 7 mph 1022.3mb 56f 53f
6:54 6 7 mph 1022.3mb 56f 53f
6:48 7 8 mph 1022.2mb 56f 52f
6:36 9 10 mph 1022.1mb 56f 52f
6:30 9 9 mph 1022.1mb 56f 53f
6:24 8 10 mph 1022mb 56f 53f
6:18 9 11 mph 1021.9mb 56f 52f
6:12 8 11 mph 1021.9mb 56f 53f
6:06 9 11 mph 1021.9mb 56f 53f
6:00 9 10 mph 1021.8mb 56f 53f
5:54 9 10 mph 1021.6mb 56f 53f
5:48 9 10 mph 1021.6mb 56f 53f
5:36 9 9 mph 1021.5mb 56f 53f
5:30 9 10 mph 1021.5mb 56f 52f
5:24 9 10 mph 1021.5mb 56f 53f
5:18 8 9 mph 1021.5mb 56f 52f
5:12 8 9 mph 1021.5mb 56f 52f
5:06 7 9 mph 1021.4mb 56f 52f
5:00 8 11 mph 1021.3mb 56f 52f
4:54 10 21 mph 1021.3mb 56f 52f
4:48 15 17 mph 1021.3mb 56f 52f
4:36 14 17 mph 1021.4mb 56f 52f
4:30 14 17 mph 1021.3mb 56f 52f
4:24 16 18 mph 1021.3mb 56f 52f
4:18 16 18 mph 1021.2mb 56f 52f
4:12 17 18 mph 1021.2mb 56f 52f
4:06 17 18 mph 1021.2mb 56f 52f
4:00 17 20 mph 1021.2mb 56f 52f
3:54 17 20 mph 1021.2mb 56f 52f
3:48 17 18 mph 1021.2mb 56f 52f
3:36 17 20 mph 1021.3mb 56f 52f
3:30 17 20 mph 1021.3mb 56f 52f
3:24 16 18 mph 1021.3mb 56f 52f
3:18 10 13 mph 1021.4mb 56f 52f
3:12 9 10 mph 1021.4mb 56f 52f
3:06 9 10 mph 1021.3mb 56f 53f
3:00 9 9 mph 1021.3mb 56f 53f
2:54 9 10 mph 1021.2mb 56f 53f
2:48 9 9 mph 1021.2mb 56f 53f
2:36 8 10 mph 1021.1mb 56f 53f
2:30 9 11 mph 1021.1mb 56f 53f
2:24 10 13 mph 1021.1mb 56f 53f
2:18 10 11 mph 1021.1mb 56f 53f
2:12 9 10 mph 1021mb 56f 53f
2:06 7 8 mph 1020.9mb 56f 53f
2:00 8 9 mph 1020.9mb 56f 53f
1:54 8 9 mph 1020.9mb 56f 53f
1:48 8 10 mph 1020.9mb 56f 53f
1:36 8 10 mph 1020.9mb 56f 53f
1:30 6 8 mph 1020.9mb 56f 53f
1:24 8 10 mph 1020.9mb 56f 53f
1:18 8 9 mph 1020.9mb 56f 53f
1:12 7 10 mph 1021mb 56f 54f
1:06 8 9 mph 1021mb 56f 53f
1:00 7 9 mph 1021mb 56f 53f
12:54 6 7 mph 1021mb 56f 53f
12:48 7 8 mph 1021.1mb 56f 53f
12:36 7 10 mph 1021.1mb 56f 53f
12:30 9 10 mph 1021.1mb 56f 53f
12:24 9 11 mph 1021.1mb 56f 53f
12:18 11 15 mph 1021mb 56f 53f
12:12 10 13 mph 1021mb 56f 53f
12:06 10 13 mph 1021.1mb 56f 53f
12:00 9 11 mph 1021mb 56f 53f
Sex 05/19 11:54 11 14 mph 1021.1mb 56f 53f
11:48 8 13 mph 1021mb 56f 53f
11:36 8 9 mph 1021mb 56f 53f
11:30 9 10 mph 1021mb 56f 53f
11:24 10 14 mph 1021mb 56f 53f
11:18 7 10 mph 1021mb 56f 52f
11:12 8 9 mph 1021mb 56f 53f
11:06 8 9 mph 1020.9mb 56f 52f
11:00 8 9 mph 1021mb 56f 53f
10:54 7 8 mph 1020.9mb 56f 53f
10:48 6 8 mph 1020.9mb 56f 53f
10:36 8 11 mph 1020.9mb 56f 53f
10:30 11 13 mph 1021mb 56f 53f
10:24 9 11 mph 1021mb 56f 53f
10:18 10 11 mph 1021mb 56f 53f
10:12 6 9 mph 1021mb 56f 53f
10:06 6 8 mph 1021.1mb 56f 53f
10:00 10 15 mph 1021mb 56f 53f
9:54 7 8 mph 1021mb 56f 53f
9:48 9 14 mph 1020.9mb 56f 53f
9:36 10 13 mph 1020.8mb 56f 53f
9:30 9 13 mph 1020.8mb 56f 53f
9:24 9 14 mph 1020.8mb 56f 53f
9:18 10 13 mph 1020.7mb 56f 53f
9:12 8 11 mph 1020.6mb 56f 53f
9:06 10 13 mph 1020.6mb 56f 54f
9:00 11 15 mph 1020.6mb 56f 54f
8:54 11 14 mph 1020.6mb 56f 54f
8:48 11 15 mph 1020.5mb 56f 53f
8:36 11 14 mph 1020.4mb 56f 54f
8:30 11 13 mph 1020.4mb 56f 54f
8:24 11 15 mph 1020.5mb 56f 54f
8:18 13 15 mph 1020.6mb 56f 54f
8:12 10 15 mph 1020.6mb 56f 54f
8:06 13 16 mph 1020.5mb 56f 54f
8:00 11 14 mph 1020.5mb 56f 55f
7:54 10 13 mph 1020.5mb 56f 55f
7:48 9 14 mph 1020.5mb 56f 55f
7:36 13 14 mph 1020.6mb 56f 55f
7:30 11 14 mph 1020.5mb 56f 55f
7:24 11 14 mph 1020.5mb 56f 55f
7:18 13 14 mph 1020.6mb 56f 55f
7:12 11 14 mph 1020.6mb 56f 55f
7:06 13 14 mph 1020.6mb 56f 55f
7:00 11 13 mph 1020.6mb 56f 55f
6:54 13 14 mph 1020.6mb 56f 55f
6:48 11 14 mph 1020.6mb 56f 55f
6:36 11 13 mph 1020.6mb 56f 55f
6:30 11 13 mph 1020.6mb 56f 55f
6:24 10 11 mph 1020.6mb 55f 55f
6:18 11 13 mph 1020.7mb 55f 55f
6:12 11 13 mph 1020.7mb 55f 55f
6:06 11 13 mph 1020.8mb 56f 55f
6:00 10 13 mph 1020.8mb 56f 55f
5:54 13 14 mph 1020.8mb 56f 55f
5:48 10 13 mph 1020.8mb 56f 55f
5:36 10 13 mph 1020.9mb 56f 55f
5:30 10 11 mph 1020.8mb 56f 55f
5:24 10 11 mph 1020.9mb 56f 55f
5:18 10 13 mph 1020.9mb 56f 55f
5:12 13 14 mph 1020.9mb 56f 55f
5:06 11 14 mph 1020.9mb 56f 55f
5:00 11 13 mph 1020.9mb 56f 55f
4:54 11 13 mph 1020.8mb 56f 55f
4:48 11 11 mph 1020.8mb 56f 55f
4:36  -  mph 1020.9mb 56f -
4:30  -  mph 1020.9mb 56f -
4:24  -  mph 1020.9mb 56f -
4:18  -  mph 1020.9mb 56f -
4:12  -  mph 1021mb 56f -
4:06  -  mph 1020.9mb 56f -
4:00  -  mph 1020.9mb 56f -
3:54  -  mph 1020.9mb 56f -
3:48  -  mph 1021mb 56f -
3:36 13 15 mph 1021mb 56f 56f
3:30 13 14 mph 1021mb 56f 56f
3:24 11 13 mph 1021mb 56f 56f
3:18 11 14 mph 1020.9mb 56f 55f
3:12 10 14 mph 1021mb 56f 56f
3:06 13 14 mph 1020.9mb 56f 56f
3:00 11 14 mph 1020.9mb 56f 56f
2:54 10 11 mph - - 56f
2:48 10 13 mph 1020.9mb 56f 56f
2:36 9 13 mph 1021mb 56f 56f
2:30 10 13 mph 1021mb 56f 56f
2:24 10 11 mph 1021mb 56f 56f
2:18 10 11 mph 1020.9mb 56f 56f
2:12 9 10 mph 1020.9mb 56f 56f
2:06 7 8 mph 1020.9mb 56f 56f
2:00 7 8 mph 1020.9mb 56f 56f
1:54 7 8 mph 1020.9mb 56f 57f
1:48 8 8 mph 1021mb 56f 56f
1:36 8 9 mph 1021mb 56f 56f
1:30 8 10 mph 1021.1mb 56f 56f
1:24 9 10 mph 1021.1mb 56f 56f
1:18 9 10 mph 1021.1mb 56f 56f
1:12 8 9 mph 1021.1mb 56f 56f
1:06 9 10 mph 1021.1mb 56f 56f
1:00 10 10 mph 1021.2mb 56f 55f
12:54 9 11 mph 1021.2mb 56f 55f
12:36 8 10 mph 1021.2mb 56f 55f
12:30 9 10 mph 1021.1mb 56f 56f
12:24 8 9 mph 1021.1mb 56f 56f
12:18 9 9 mph 1021.1mb 56f 56f
12:12 9 10 mph 1021.1mb 56f 55f
12:06 8 9 mph 1021.1mb 56f 56f
12:00 8 9 mph 1021.2mb 56f 57f
11:54 8 8 mph 1021.1mb 56f 57f
11:48 8 9 mph 1021.1mb 56f 56f
11:36 7 8 mph 1021.1mb 56f 56f
11:30 7 8 mph 1021.1mb 56f 57f
11:24 6 7 mph 1021.1mb 56f 58f
11:18 6 6 mph 1021.1mb 56f 57f
11:12 5 6 mph 1021.1mb 56f 57f
11:06 6 6 mph 1021.2mb 56f 57f
11:00 5 6 mph 1021.3mb 56f 57f
10:54 5 6 mph 1021.3mb 56f 57f
10:48 6 6 mph 1021.3mb 56f 57f
10:36 6 6 mph 1021.3mb 56f 56f
10:30 6 7 mph 1021.3mb 55f 55f
10:24 7 7 mph 1021.3mb 55f 55f
10:18 7 7 mph 1021.3mb 55f 55f
10:12 6 7 mph 1021.3mb 55f 55f
10:06 6 7 mph 1021.2mb 55f 55f
10:00 6 7 mph 1021.2mb 55f 55f
9:54 6 7 mph 1021.2mb 55f 55f
9:48 2 3 mph 1021.2mb 55f 55f
9:36 2 2 mph 1021.1mb 55f 54f
9:30 2 3 mph 1021mb 55f 54f
9:24 3 3 mph 1020.9mb 55f 54f
9:18 3 3 mph 1020.9mb 55f 54f
9:12 2 3 mph 1020.8mb 55f 54f
9:06 1 2 mph 1020.8mb 55f 54f
9:00 2 2 mph 1020.8mb 55f 54f
8:54 2 2 mph 1020.8mb 55f 54f
8:48 2 2 mph 1020.7mb 55f 54f
8:36 1 2 mph 1020.8mb 55f 54f
8:30 1 2 mph 1020.8mb 55f 54f
8:24 1 2 mph 1020.8mb 55f 53f
8:18 1 2 mph 1020.8mb 55f 53f
8:12  -  2 mph 1020.8mb 55f 53f
8:06  -  0 mph 1020.7mb 55f 53f
8:00  -  1 mph 1020.7mb 55f 53f
7:54  -  1 mph 1020.6mb 55f 52f
7:48  -  1 mph 1020.6mb 55f 52f
7:36  -  1 mph 1020.6mb 55f 51f
7:30  -  1 mph 1020.6mb 55f 51f
7:24  -  1 mph 1020.6mb 55f 51f
7:18  -  0 mph 1020.6mb 55f 50f
7:12  -  1 mph 1020.6mb 55f 50f
7:06  -  1 mph 1020.5mb 55f 50f
7:00  -  1 mph 1020.4mb 55f 50f
6:54 2 2 mph 1020.3mb 55f 51f
6:48 2 2 mph 1020.2mb 55f 51f
6:36 3 3 mph 1020.2mb 55f 50f
6:30 3 3 mph 1020.2mb 55f 50f
6:24 3 5 mph 1020.2mb 55f 50f
6:18 3 5 mph 1020mb 55f 50f
6:12 5 6 mph 1019.9mb 55f 51f
6:06 5 5 mph 1019.9mb 55f 51f
6:00 3 3 mph 1019.9mb 55f 51f
5:54 3 3 mph 1019.9mb 55f 51f
5:48 2 2 mph 1020mb 55f 51f
5:36 2 3 mph 1020mb 55f 51f
5:30 3 6 mph 1020mb 55f 51f
5:24 5 6 mph 1020.1mb 55f 51f
5:18 5 6 mph 1020.1mb 55f 51f
5:12 5 6 mph 1020.1mb 55f 51f
5:06 3 5 mph 1020.1mb 55f 51f
5:00 5 5 mph 1020mb 55f 51f
4:54 3 5 mph 1020mb 55f 51f
4:48 3 5 mph 1020mb 55f 51f
4:36 3 3 mph 1020mb 56f 51f
4:30 3 3 mph 1020.1mb 56f 51f
4:24 3 3 mph 1020.2mb 56f 51f
4:18 3 5 mph 1020.2mb 56f 51f
4:12 5 5 mph 1020.1mb 56f 51f
4:06 3 3 mph 1020mb 56f 51f
4:00 3 3 mph 1020mb 56f 51f
3:54 3 3 mph 1020.1mb 56f 51f
3:48 3 3 mph 1020.1mb 56f 51f
3:36 3 3 mph 1020.1mb 56f 51f